createdAt,value
2022-08-10T00:01:35.481Z,95587.03
2022-08-10T00:04:03.392Z,95585.63
2022-08-10T00:06:31.275Z,95585.88
2022-08-10T00:09:00.365Z,95588.38
2022-08-10T00:11:28.170Z,95585.34
2022-08-10T00:13:55.911Z,95587.53
2022-08-10T00:16:23.662Z,95596.34
2022-08-10T00:18:51.620Z,95588.34
2022-08-10T00:21:19.381Z,95582.03
2022-08-10T00:23:47.222Z,95579.56
2022-08-10T00:26:16.593Z,95578.97
2022-08-10T00:28:46.158Z,95580.28
2022-08-10T00:31:13.868Z,95583.47
2022-08-10T00:33:42.000Z,95594.69
2022-08-10T00:36:09.830Z,95592.16
2022-08-10T00:38:37.691Z,95591.31
2022-08-10T00:41:05.605Z,95595.78
2022-08-10T00:43:34.729Z,95596.59
2022-08-10T00:46:04.105Z,95590.88
2022-08-10T00:48:32.590Z,95595.03
2022-08-10T00:51:00.712Z,95585.66
2022-08-10T00:53:28.712Z,95585.41
2022-08-10T00:57:14.130Z,95587.59
2022-08-10T00:58:46.379Z,95584.88
2022-08-10T01:02:10.586Z,95582.13
2022-08-10T01:04:57.229Z,95579.09
2022-08-10T01:06:57.925Z,95581.59
2022-08-10T01:09:30.870Z,95581.84
2022-08-10T01:12:37.922Z,95586.53
2022-08-10T01:14:57.250Z,95579.91
2022-08-10T01:17:50.605Z,95581.81
2022-08-10T01:20:30.146Z,95582.59
2022-08-10T01:23:27.484Z,95585.31
2022-08-10T01:26:12.212Z,95585.56
2022-08-10T01:29:14.802Z,95576.19
2022-08-10T01:31:46.703Z,95576.19
2022-08-10T01:34:15.924Z,95578.38
2022-08-10T01:36:49.493Z,95579.75
2022-08-10T01:39:23.607Z,95575.88
2022-08-10T01:41:53.924Z,95574.78
2022-08-10T01:44:26.724Z,95571.13
2022-08-10T01:47:22.475Z,95568.63
2022-08-10T01:49:54.245Z,95574.13
2022-08-10T01:52:23.612Z,95574.09
2022-08-10T01:54:52.832Z,95576.00
2022-08-10T01:57:24.523Z,95570.72
2022-08-10T01:59:58.788Z,95569.31
2022-08-10T02:02:31.683Z,95567.16
2022-08-10T02:05:00.653Z,95568.75
2022-08-10T02:07:29.730Z,95563.78
2022-08-10T02:10:00.327Z,95563.78
2022-08-10T02:12:31.765Z,95565.41
2022-08-10T02:15:01.436Z,95566.75
2022-08-10T02:17:58.442Z,95571.13
2022-08-10T02:20:26.217Z,95566.94
2022-08-10T02:23:01.517Z,95570.22
2022-08-10T02:25:41.574Z,95567.44
2022-08-10T02:28:12.778Z,95561.94
2022-08-10T02:30:57.620Z,95562.50
2022-08-10T02:33:28.866Z,95563.00
2022-08-10T02:35:57.176Z,95566.28
2022-08-10T02:38:59.235Z,95551.09
2022-08-10T02:45:01.647Z,95553.00
2022-08-10T02:45:24.119Z,95551.31
2022-08-10T02:47:04.661Z,95556.81
2022-08-10T02:49:39.959Z,95552.38
2022-08-10T02:52:10.525Z,95545.50
2022-08-10T02:54:40.585Z,95545.75
2022-08-10T02:57:11.557Z,95550.41
2022-08-10T02:59:43.445Z,95541.84
2022-08-10T03:02:13.581Z,95541.50
2022-08-10T03:04:55.887Z,95539.88
2022-08-10T03:07:43.598Z,95532.94
2022-08-10T03:10:17.662Z,95542.81
2022-08-10T03:12:47.349Z,95536.78
2022-08-10T03:15:16.178Z,95536.78
2022-08-10T03:17:57.665Z,95534.88
2022-08-10T03:20:37.084Z,95537.34
2022-08-10T03:23:09.455Z,95534.03
2022-08-10T03:25:38.078Z,95535.13
2022-08-10T03:28:06.149Z,95538.63
2022-08-10T03:30:35.014Z,95543.28
2022-08-10T03:33:04.249Z,95541.13
2022-08-10T03:35:33.409Z,95535.63
2022-08-10T03:38:01.505Z,95529.84
2022-08-10T03:40:45.714Z,95534.50
2022-08-10T03:43:17.105Z,95529.78
2022-08-10T03:45:55.668Z,95533.34
2022-08-10T03:48:24.543Z,95528.69
2022-08-10T03:51:04.932Z,95532.22
2022-08-10T03:54:05.889Z,95533.56
2022-08-10T03:56:30.053Z,95537.88
2022-08-10T03:58:59.386Z,95533.44
2022-08-10T04:02:46.664Z,95541.41
2022-08-10T04:04:19.254Z,95541.34
2022-08-10T04:06:51.475Z,95540.81
2022-08-10T04:09:22.331Z,95542.41
2022-08-10T04:11:50.573Z,95545.91
2022-08-10T04:14:38.540Z,95542.31
2022-08-10T04:17:08.464Z,95556.25
2022-08-10T04:19:43.075Z,95560.41
2022-08-10T04:22:13.719Z,95557.06
2022-08-10T04:24:42.849Z,95560.09
2022-08-10T04:27:10.664Z,95554.28
2022-08-10T04:29:38.550Z,95555.63
2022-08-10T04:32:08.722Z,95565.47
2022-08-10T04:34:36.674Z,95559.75
2022-08-10T04:37:09.072Z,95561.91
2022-08-10T04:39:38.649Z,95559.75
2022-08-10T04:42:07.478Z,95559.75
2022-08-10T04:44:35.269Z,95560.28
2022-08-10T04:47:03.001Z,95548.47
2022-08-10T04:49:55.424Z,95560.28
2022-08-10T04:52:18.662Z,95553.72
2022-08-10T04:54:47.583Z,95548.47
2022-08-10T04:57:15.224Z,95543.00
2022-08-10T04:59:43.151Z,95548.78
2022-08-10T05:02:29.008Z,95546.06
2022-08-10T05:04:58.787Z,95548.28
2022-08-10T05:07:26.796Z,95559.00
2022-08-10T05:10:03.462Z,95561.22
2022-08-10T05:12:35.929Z,95560.47
2022-08-10T05:15:06.704Z,95552.31
2022-08-10T05:17:35.206Z,95556.47
2022-08-10T05:20:06.664Z,95557.63
2022-08-10T05:22:36.772Z,95546.50
2022-08-10T05:25:08.143Z,95557.25
2022-08-10T05:27:35.984Z,95564.44
2022-08-10T05:30:05.377Z,95565.31
2022-08-10T05:32:34.348Z,95567.03
2022-08-10T05:35:21.312Z,95570.94
2022-08-10T05:38:10.951Z,95569.09
2022-08-10T05:40:39.351Z,95564.78
2022-08-10T05:43:07.049Z,95570.59
2022-08-10T05:45:34.761Z,95566.56
2022-08-10T05:48:57.116Z,95558.94
2022-08-10T05:51:10.884Z,95564.78
2022-08-10T05:54:03.114Z,95561.00
2022-08-10T05:56:28.016Z,95563.56
2022-08-10T05:59:16.811Z,95554.06
2022-08-10T06:02:33.143Z,95556.59
2022-08-10T06:04:54.460Z,95555.28
2022-08-10T06:07:22.381Z,95558.59
2022-08-10T06:09:59.278Z,95554.53
2022-08-10T06:12:31.449Z,95557.34
2022-08-10T06:15:05.524Z,95557.09
2022-08-10T06:17:34.077Z,95559.34
2022-08-10T06:20:01.997Z,95564.88
2022-08-10T06:22:32.266Z,95563.81
2022-08-10T06:25:32.399Z,95556.72
2022-08-10T06:27:52.022Z,95572.13
2022-08-10T06:30:21.178Z,95566.66
2022-08-10T06:32:49.326Z,95569.16
2022-08-10T06:35:17.726Z,95565.00
2022-08-10T06:37:51.487Z,95562.53
2022-08-10T06:40:19.824Z,95558.38
2022-08-10T06:42:49.330Z,95556.72
2022-08-10T06:45:21.079Z,95550.59
2022-08-10T06:47:51.101Z,95560.47
2022-08-10T06:50:44.702Z,95554.31
2022-08-10T06:53:13.043Z,95553.09
2022-08-10T06:55:55.444Z,95556.59
2022-08-10T06:58:27.244Z,95551.56
2022-08-10T07:00:58.047Z,95544.78
2022-08-10T07:03:29.859Z,95555.34
2022-08-10T07:05:58.141Z,95546.19
2022-08-10T07:08:26.717Z,95546.06
2022-08-10T07:10:54.505Z,95551.47
2022-08-10T07:14:13.979Z,95543.91
2022-08-10T07:16:12.947Z,95543.16
2022-08-10T07:18:42.516Z,95535.19
2022-08-10T07:21:10.410Z,95537.00
2022-08-10T07:23:57.889Z,95537.03
2022-08-10T07:26:28.491Z,95526.56
2022-08-10T07:28:56.630Z,95526.66
2022-08-10T07:31:33.019Z,95534.34
2022-08-10T07:34:28.735Z,95538.75
2022-08-10T07:37:01.238Z,95541.66
2022-08-10T07:40:03.908Z,95523.53
2022-08-10T07:42:20.146Z,95528.31
2022-08-10T07:44:50.499Z,95536.44
2022-08-10T07:47:46.200Z,95539.25
2022-08-10T07:50:15.522Z,95533.53
2022-08-10T07:52:43.703Z,95535.38
2022-08-10T07:55:14.774Z,95533.31
2022-08-10T07:57:43.968Z,95532.69
2022-08-10T08:00:12.610Z,95529.16
2022-08-10T08:02:46.074Z,95529.03
2022-08-10T08:05:53.721Z,95528.47
2022-08-10T08:08:03.845Z,95523.03
2022-08-10T08:10:32.509Z,95527.44
2022-08-10T08:13:01.408Z,95532.75
2022-08-10T08:16:20.613Z,95534.38
2022-08-10T08:18:24.841Z,95543.47
2022-08-10T08:20:54.424Z,95536.88
2022-08-10T08:24:16.668Z,95538.59
2022-08-10T08:26:12.453Z,95541.75
2022-08-10T08:28:45.678Z,95547.06
2022-08-10T08:31:15.372Z,95541.38
2022-08-10T08:33:45.953Z,95540.38
2022-08-10T08:36:15.826Z,95543.56
2022-08-10T08:38:44.054Z,95540.19
2022-08-10T08:41:23.341Z,95538.44
2022-08-10T08:43:55.710Z,95535.34
2022-08-10T08:46:36.066Z,95539.13
2022-08-10T08:50:05.218Z,95528.88
2022-08-10T08:52:18.911Z,95524.63
2022-08-10T08:54:54.518Z,95531.16
2022-08-10T08:57:49.095Z,95535.81
2022-08-10T09:00:20.918Z,95524.56
2022-08-10T09:03:17.830Z,95521.84
2022-08-10T09:05:58.875Z,95520.38
2022-08-10T09:08:59.326Z,95526.13
2022-08-10T09:11:35.285Z,95527.72
2022-08-10T09:14:09.716Z,95525.75
2022-08-10T09:16:44.798Z,95517.56
2022-08-10T09:19:19.571Z,95521.84
2022-08-10T09:22:17.395Z,95520.81
2022-08-10T09:24:51.200Z,95519.22
2022-08-10T09:27:21.913Z,95522.50
2022-08-10T09:29:55.521Z,95520.06
2022-08-10T09:36:19.265Z,95524.34
2022-08-10T09:36:22.796Z,95524.84
2022-08-10T09:38:15.664Z,95522.06
2022-08-10T09:40:59.304Z,95526.81
2022-08-10T09:43:37.886Z,95517.28
2022-08-10T09:46:11.978Z,95521.41
2022-08-10T09:48:44.788Z,95514.34
2022-08-10T09:54:18.902Z,95520.88
2022-08-10T09:56:51.122Z,95517.91
2022-08-10T10:00:00.585Z,95522.00
2022-08-10T10:02:34.253Z,95512.78
2022-08-10T10:05:08.978Z,95514.88
2022-08-10T10:07:40.816Z,95515.59
2022-08-10T10:10:11.740Z,95509.63
2022-08-10T10:12:46.166Z,95515.41
2022-08-10T10:15:25.297Z,95505.28
2022-08-10T10:18:11.453Z,95509.59
2022-08-10T10:20:42.509Z,95502.16
2022-08-10T10:23:16.770Z,95510.53
2022-08-10T10:25:52.570Z,95502.69
2022-08-10T10:29:11.402Z,95498.03
2022-08-10T10:31:28.394Z,95503.47
2022-08-10T10:34:05.333Z,95499.81
2022-08-10T10:36:33.986Z,95496.69
2022-08-10T10:39:04.401Z,95497.31
2022-08-10T10:42:03.756Z,95491.16
2022-08-10T10:44:36.118Z,95493.22
2022-08-10T10:47:15.772Z,95491.81
2022-08-10T10:49:53.642Z,95491.91
2022-08-10T10:52:30.846Z,95494.91
2022-08-10T10:55:06.293Z,95489.88
2022-08-10T10:57:58.669Z,95485.25
2022-08-10T11:00:31.286Z,95496.88
2022-08-10T11:03:07.901Z,95481.16
2022-08-10T11:05:42.070Z,95487.03
2022-08-10T11:08:12.198Z,95485.53
2022-08-10T11:10:48.285Z,95483.19
2022-08-10T11:14:27.365Z,95484.13
2022-08-10T11:16:21.525Z,95493.09
2022-08-10T11:18:56.151Z,95487.16
2022-08-10T11:21:40.789Z,95494.00
2022-08-10T11:24:42.754Z,95484.84
2022-08-10T11:27:05.995Z,95504.78
2022-08-10T11:29:45.307Z,95498.16
2022-08-10T11:32:20.521Z,95492.72
2022-08-10T11:35:11.870Z,95495.50
2022-08-10T11:38:32.001Z,95488.38
2022-08-10T11:40:38.363Z,95494.53
2022-08-10T11:43:12.785Z,95483.13
2022-08-10T11:45:52.091Z,95488.41
2022-08-10T11:48:54.360Z,95492.09
2022-08-10T11:51:21.109Z,95484.03
2022-08-10T11:53:52.736Z,95488.00
2022-08-10T11:56:26.151Z,95487.81
2022-08-10T11:59:17.213Z,95489.97
2022-08-10T12:01:48.548Z,95489.41
2022-08-10T12:04:17.350Z,95482.34
2022-08-10T12:06:55.753Z,95490.53
2022-08-10T12:10:09.306Z,95490.50
2022-08-10T12:12:13.294Z,95487.25
2022-08-10T12:14:46.058Z,95491.53
2022-08-10T12:17:18.316Z,95480.69
2022-08-10T12:20:01.765Z,95482.13
2022-08-10T12:22:34.599Z,95478.94
2022-08-10T12:25:02.983Z,95474.78
2022-08-10T12:27:34.477Z,95484.81
2022-08-10T12:30:05.282Z,95467.16
2022-08-10T12:32:45.295Z,95470.78
2022-08-10T12:35:26.142Z,95477.97
2022-08-10T12:38:04.905Z,95475.53
2022-08-10T12:40:36.962Z,95472.94
2022-08-10T12:44:03.578Z,95480.31
2022-08-10T12:46:07.003Z,95486.19
2022-08-10T12:48:38.189Z,95481.53
2022-08-10T12:51:09.326Z,95487.16
2022-08-10T12:53:45.642Z,95476.28
2022-08-10T12:56:22.677Z,95471.72
2022-08-10T12:58:59.659Z,95482.06
2022-08-10T13:02:09.639Z,95479.53
2022-08-10T13:04:29.846Z,95472.19
2022-08-10T13:07:00.562Z,95468.47
2022-08-10T13:09:29.031Z,95473.69
2022-08-10T13:12:38.031Z,95466.69
2022-08-10T13:14:52.221Z,95459.75
2022-08-10T13:17:38.849Z,95469.19
2022-08-10T13:20:16.355Z,95461.53
2022-08-10T13:22:44.702Z,95467.25
2022-08-10T13:25:12.700Z,95456.00
2022-08-10T13:28:01.041Z,95461.41
2022-08-10T13:30:33.616Z,95463.72
2022-08-10T13:33:05.479Z,95449.88
2022-08-10T13:35:35.366Z,95451.34
2022-08-10T13:38:03.977Z,95439.94
2022-08-10T13:40:34.458Z,95450.56
2022-08-10T13:43:04.604Z,95443.94
2022-08-10T13:45:32.715Z,95448.97
2022-08-10T13:48:10.650Z,95435.97
2022-08-10T13:50:40.222Z,95436.25
2022-08-10T13:53:14.449Z,95432.75
2022-08-10T13:55:54.093Z,95434.25
2022-08-10T13:58:26.249Z,95425.72
2022-08-10T14:00:54.278Z,95418.47
2022-08-10T14:03:23.300Z,95427.53
2022-08-10T14:05:54.330Z,95424.16
2022-08-10T14:08:26.769Z,95432.31
2022-08-10T14:11:08.456Z,95422.81
2022-08-10T14:13:53.343Z,95420.03
2022-08-10T14:16:21.882Z,95434.16
2022-08-10T14:18:51.076Z,95418.44
2022-08-10T14:21:20.363Z,95410.06
2022-08-10T14:23:52.646Z,95409.34
2022-08-10T14:26:23.503Z,95419.69
2022-08-10T14:28:54.725Z,95407.03
2022-08-10T14:31:25.059Z,95404.47
2022-08-10T14:33:55.716Z,95402.47
2022-08-10T14:36:31.223Z,95408.91
2022-08-10T14:38:59.931Z,95402.00
2022-08-10T14:42:03.318Z,95399.06
2022-08-10T14:44:18.352Z,95396.16
2022-08-10T14:46:51.422Z,95401.75
2022-08-10T14:49:25.632Z,95394.72
2022-08-10T14:51:59.667Z,95404.25
2022-08-10T14:54:29.482Z,95408.78
2022-08-10T14:56:58.168Z,95390.38
2022-08-10T14:59:45.883Z,95383.94
2022-08-10T15:02:38.590Z,95395.75
2022-08-10T15:05:09.349Z,95384.41
2022-08-10T15:07:39.007Z,95393.75
2022-08-10T15:10:08.274Z,95385.56
2022-08-10T15:12:38.268Z,95390.47
2022-08-10T15:15:09.447Z,95394.75
2022-08-10T15:17:41.973Z,95391.47
2022-08-10T15:20:15.735Z,95394.94
2022-08-10T15:22:52.028Z,95393.66
2022-08-10T15:25:24.972Z,95385.91
2022-08-10T15:27:57.111Z,95388.22
2022-08-10T15:30:31.083Z,95387.69
2022-08-10T15:33:21.452Z,95383.28
2022-08-10T15:36:24.775Z,95382.56
2022-08-10T15:38:59.651Z,95381.75
2022-08-10T15:41:57.607Z,95372.88
2022-08-10T15:44:36.603Z,95376.13
2022-08-10T15:47:07.915Z,95369.94
2022-08-10T15:49:45.214Z,95374.78
2022-08-10T15:52:39.267Z,95366.44
2022-08-10T15:55:41.757Z,95370.16
2022-08-10T15:58:06.073Z,95366.53
2022-08-10T16:00:38.205Z,95369.19
2022-08-10T16:03:13.216Z,95367.06
2022-08-10T16:06:02.207Z,95363.63
2022-08-10T16:08:55.837Z,95367.09
2022-08-10T16:11:38.126Z,95361.38
2022-08-10T16:14:14.542Z,95358.63
2022-08-10T16:16:42.936Z,95357.31
2022-08-10T16:19:22.446Z,95354.56
2022-08-10T16:21:57.004Z,95360.81
2022-08-10T16:24:25.408Z,95366.00
2022-08-10T16:26:55.526Z,95357.50
2022-08-10T16:29:25.149Z,95356.84
2022-08-10T16:31:55.766Z,95358.84
2022-08-10T16:34:25.189Z,95359.84
2022-08-10T16:36:55.586Z,95356.53
2022-08-10T16:39:57.018Z,95359.19
2022-08-10T16:42:18.758Z,95354.31
2022-08-10T16:44:53.409Z,95346.94
2022-08-10T16:47:27.527Z,95351.38
2022-08-10T16:49:56.757Z,95347.63
2022-08-10T16:52:25.669Z,95340.09
2022-08-10T16:54:54.079Z,95341.91
2022-08-10T16:57:23.819Z,95347.16
2022-08-10T16:59:54.710Z,95344.56
2022-08-10T17:02:22.738Z,95346.97
2022-08-10T17:04:52.730Z,95347.34
2022-08-10T17:07:24.991Z,95354.84
2022-08-10T17:09:59.098Z,95346.03
2022-08-10T17:12:28.874Z,95343.56
2022-08-10T17:15:09.097Z,95347.28
2022-08-10T17:17:40.393Z,95345.81
2022-08-10T17:20:30.782Z,95336.97
2022-08-10T17:23:01.649Z,95344.78
2022-08-10T17:25:45.807Z,95347.09
2022-08-10T17:28:32.785Z,95340.03
2022-08-10T17:31:24.224Z,95337.56
2022-08-10T17:33:59.991Z,95344.56
2022-08-10T17:36:31.184Z,95342.28
2022-08-10T17:39:51.585Z,95340.28
2022-08-10T17:42:21.785Z,95340.59
2022-08-10T17:44:53.330Z,95340.41
2022-08-10T17:47:23.648Z,95335.81
2022-08-10T17:49:56.425Z,95343.16
2022-08-10T17:52:26.240Z,95339.22
2022-08-10T17:55:00.330Z,95352.47
2022-08-10T17:57:28.777Z,95347.69
2022-08-10T18:00:02.397Z,95349.31
2022-08-10T18:02:30.808Z,95357.03
2022-08-10T18:04:59.866Z,95353.56
2022-08-10T18:07:33.063Z,95369.38
2022-08-10T18:10:01.717Z,95361.34
2022-08-10T18:12:38.078Z,95363.50
2022-08-10T18:15:12.115Z,95371.00
2022-08-10T18:17:43.561Z,95370.78
2022-08-10T18:20:11.804Z,95371.06
2022-08-10T18:22:44.196Z,95374.91
2022-08-10T18:25:18.249Z,95370.13
2022-08-10T18:28:03.779Z,95366.00
2022-08-10T18:30:36.628Z,95372.75
2022-08-10T18:33:05.794Z,95379.19
2022-08-10T18:35:34.471Z,95377.03
2022-08-10T18:38:03.782Z,95386.72
2022-08-10T18:40:35.530Z,95388.00
2022-08-10T18:44:02.920Z,95392.63
2022-08-10T18:45:56.867Z,95398.81
2022-08-10T18:48:28.000Z,95391.31
2022-08-10T18:50:59.921Z,95390.09
2022-08-10T18:53:33.834Z,95394.38
2022-08-10T18:56:13.443Z,95397.25
2022-08-10T18:58:57.430Z,95390.00
2022-08-10T19:01:47.906Z,95396.47
2022-08-10T19:04:25.185Z,95397.41
2022-08-10T19:07:04.190Z,95402.44
2022-08-10T19:09:47.791Z,95400.38
2022-08-10T19:12:30.119Z,95405.84
2022-08-10T19:15:06.870Z,95401.22
2022-08-10T19:18:06.318Z,95405.19
2022-08-10T19:20:35.189Z,95405.31
2022-08-10T19:23:14.171Z,95406.81
2022-08-10T19:26:43.363Z,95406.72
2022-08-10T19:28:40.059Z,95408.53
2022-08-10T19:31:12.193Z,95406.56
2022-08-10T19:33:45.972Z,95408.28
2022-08-10T19:36:17.509Z,95409.72
2022-08-10T19:38:50.667Z,95412.78
2022-08-10T19:41:31.902Z,95411.53
2022-08-10T19:44:05.090Z,95406.38
2022-08-10T19:46:38.809Z,95404.00
2022-08-10T19:49:18.547Z,95410.44
2022-08-10T19:51:58.090Z,95410.81
2022-08-10T19:54:35.064Z,95408.75
2022-08-10T19:57:10.939Z,95406.03
2022-08-10T20:00:17.011Z,95413.91
2022-08-10T20:02:36.394Z,95411.50
2022-08-10T20:05:11.308Z,95413.31
2022-08-10T20:07:44.663Z,95406.50
2022-08-10T20:10:12.778Z,95412.91
2022-08-10T20:12:50.350Z,95410.81
2022-08-10T20:15:24.579Z,95407.31
2022-08-10T20:17:57.953Z,95409.91
2022-08-10T20:20:33.581Z,95402.34
2022-08-10T20:23:10.194Z,95410.22
2022-08-10T20:25:40.732Z,95407.22
2022-08-10T20:28:15.146Z,95410.66
2022-08-10T20:30:46.633Z,95410.69
2022-08-10T20:33:19.546Z,95405.28
2022-08-10T20:35:55.647Z,95405.56
2022-08-10T20:38:27.335Z,95404.53
2022-08-10T20:41:05.087Z,95399.88
2022-08-10T20:43:40.700Z,95404.31
2022-08-10T20:46:15.010Z,95399.47
2022-08-10T20:48:45.600Z,95399.53
2022-08-10T20:51:16.115Z,95396.78
2022-08-10T20:53:48.333Z,95402.06
2022-08-10T20:56:22.053Z,95405.44
2022-08-10T20:59:09.421Z,95399.47
2022-08-10T21:02:06.512Z,95399.47
2022-08-10T21:04:45.213Z,95400.84
2022-08-10T21:08:00.952Z,95391.31
2022-08-10T21:10:39.100Z,95390.75
2022-08-10T21:13:21.818Z,95388.00
2022-08-10T21:15:56.504Z,95398.56
2022-08-10T21:18:35.573Z,95394.16
2022-08-10T21:21:41.495Z,95395.28
2022-08-10T21:24:16.137Z,95384.81
2022-08-10T21:26:52.850Z,95390.44
2022-08-10T21:29:39.928Z,95394.28
2022-08-10T21:32:15.671Z,95391.53
2022-08-10T21:34:55.256Z,95389.91
2022-08-10T21:37:39.779Z,95388.00
2022-08-10T21:40:36.067Z,95387.19
2022-08-10T21:43:44.824Z,95381.16
2022-08-10T21:46:37.826Z,95381.22
2022-08-10T21:49:48.069Z,95388.97
2022-08-10T21:52:39.305Z,95382.34
2022-08-10T21:55:58.138Z,95390.09
2022-08-10T21:58:45.488Z,95380.78
2022-08-10T22:01:47.772Z,95374.72
2022-08-10T22:04:36.516Z,95375.59
2022-08-10T22:07:23.984Z,95385.00
2022-08-10T22:10:10.545Z,95371.78
2022-08-10T22:12:59.685Z,95380.88
2022-08-10T22:16:05.439Z,95376.22
2022-08-10T22:19:02.967Z,95370.44
2022-08-10T22:21:59.723Z,95369.38
2022-08-10T22:24:58.804Z,95360.56
2022-08-10T22:27:48.327Z,95364.97
2022-08-10T22:30:35.240Z,95367.75
2022-08-10T22:33:39.293Z,95361.72
2022-08-10T22:36:39.987Z,95360.06
2022-08-10T22:40:10.060Z,95360.34
2022-08-10T22:42:59.572Z,95354.59
2022-08-10T22:45:49.194Z,95360.94
2022-08-10T22:48:36.314Z,95350.50
2022-08-10T22:51:07.835Z,95352.69
2022-08-10T22:53:50.571Z,95356.31
2022-08-10T22:56:39.261Z,95355.47
2022-08-10T22:59:07.866Z,95345.31
2022-08-10T23:02:08.831Z,95351.63
2022-08-10T23:04:45.159Z,95348.88
2022-08-10T23:07:21.819Z,95346.41
2022-08-10T23:09:58.791Z,95343.66
2022-08-10T23:12:31.007Z,95341.19
2022-08-10T23:15:16.722Z,95342.28
2022-08-10T23:18:08.033Z,95339.00
2022-08-10T23:20:39.050Z,95338.75
2022-08-10T23:23:11.823Z,95345.34
2022-08-10T23:25:56.571Z,95338.22
2022-08-10T23:28:39.001Z,95332.47
2022-08-10T23:32:06.169Z,95327.81
2022-08-10T23:34:06.228Z,95321.75
2022-08-10T23:36:37.529Z,95325.06
2022-08-10T23:39:24.121Z,95324.50
2022-08-10T23:41:56.364Z,95320.69
2022-08-10T23:44:25.335Z,95323.47
2022-08-10T23:46:53.681Z,95320.16
2022-08-10T23:49:23.232Z,95322.91
2022-08-10T23:51:56.118Z,95322.91
2022-08-10T23:54:25.897Z,95322.34
2022-08-10T23:57:01.335Z,95327.31
2022-08-10T23:59:33.948Z,95325.13
